Time;durP1;ratioP1;P1;durP2;ratioP2;P2;SDS_P1;SDS_P2;PMS_P1;PMS_P2;Temp;Humidity;BMP_temperature;BMP_pressure;BME280_temperature;BME280_humidity;BME280_pressure;Samples;Min_cycle;Max_cycle;Signal;HPM_P1;HPM_P2
2022/10/25 00:02:01;;;;;;;;;;;15.20;65.10;;;;;;5007537;28;82926;-38
2022/10/25 00:04:27;;;;;;;;;;;15.20;65.00;;;;;;5008049;28;83058;-38
2022/10/25 00:06:52;;;;;;;;;;;15.20;65.00;;;;;;5008099;28;82099;-38
2022/10/25 00:09:18;;;;;;;;;;;15.10;65.00;;;;;;5008136;28;81934;-38
2022/10/25 00:11:43;;;;;;;;;;;15.20;65.00;;;;;;5007524;28;83279;-38
2022/10/25 00:14:09;;;;;;;;;;;15.10;64.90;;;;;;5010324;28;82014;-38
2022/10/25 00:16:36;;;;;;;;;;;15.10;64.90;;;;;;5007903;28;82939;-38
2022/10/25 00:19:02;;;;;;;;;;;15.10;65.00;;;;;;5008258;28;81360;-38
2022/10/25 00:21:28;;;;;;;;;;;15.10;65.00;;;;;;5007968;28;82035;-38
2022/10/25 00:23:53;;;;;;;;;;;15.20;65.00;;;;;;5007365;28;82282;-38
2022/10/25 00:26:19;;;;;;;;;;;15.10;65.00;;;;;;5006909;28;82971;-38
2022/10/25 00:28:45;;;;;;;;;;;15.10;65.10;;;;;;5007619;28;83034;-38
2022/10/25 00:31:11;;;;;;;;;;;15.10;65.10;;;;;;5007172;28;82952;-38
2022/10/25 00:33:37;;;;;;;;;;;15.00;65.10;;;;;;5007495;28;82027;-38
2022/10/25 00:36:07;;;;;;;;;;;15.00;65.00;;;;;;5010212;28;82480;-38
2022/10/25 00:38:33;;;;;;;;;;;15.00;65.10;;;;;;5007364;28;82012;-38
2022/10/25 00:40:59;;;;;;;;;;;15.00;65.10;;;;;;5007493;28;82483;-38
2022/10/25 00:43:30;;;;;;;;;;;15.00;65.10;;;;;;5007993;28;81956;-38
2022/10/25 00:45:56;;;;;;;;;;;15.00;65.00;;;;;;5007505;28;82072;-38
2022/10/25 00:48:21;;;;;;;;;;;15.00;65.00;;;;;;5007266;28;82324;-38
2022/10/25 00:50:48;;;;;;;;;;;15.00;65.10;;;;;;5006420;28;83988;-38
2022/10/25 00:53:17;;;;;;;;;;;15.00;65.10;;;;;;5007200;28;81788;-38
2022/10/25 00:55:45;;;;;;;;;;;14.90;65.00;;;;;;5007053;28;82370;-38
2022/10/25 00:58:16;;;;;;;;;;;14.90;65.00;;;;;;5009524;28;83096;-38
2022/10/25 01:00:44;;;;;;;;;;;14.90;65.00;;;;;;5007047;28;82396;-38
2022/10/25 01:03:10;;;;;;;;;;;14.90;65.00;;;;;;5006984;28;83045;-38
2022/10/25 01:05:36;;;;;;;;;;;14.90;65.00;;;;;;5007207;28;82100;-38
2022/10/25 01:08:02;;;;;;;;;;;14.90;65.00;;;;;;5007366;28;82538;-38
2022/10/25 01:10:28;;;;;;;;;;;14.90;65.00;;;;;;5006830;28;82940;-38
2022/10/25 01:12:54;;;;;;;;;;;14.90;65.00;;;;;;5006343;28;81990;-38
2022/10/25 01:15:22;;;;;;;;;;;14.90;65.00;;;;;;5006251;28;82871;-38
2022/10/25 01:18:08;;;;;;;;;;;14.90;65.00;;;;;;5006483;28;83122;-38
2022/10/25 01:20:39;;;;;;;;;;;14.90;65.00;;;;;;5009868;28;82210;-38
2022/10/25 01:23:10;;;;;;;;;;;14.90;65.00;;;;;;5006429;28;83372;-38
2022/10/25 01:25:57;;;;;;;;;;;14.90;65.00;;;;;;5006892;28;82059;-38
2022/10/25 01:28:29;;;;;;;;;;;14.80;64.90;;;;;;5006771;28;82398;-38
2022/10/25 01:30:57;;;;;;;;;;;14.80;64.90;;;;;;5006545;28;83446;-38
2022/10/25 01:33:43;;;;;;;;;;;14.80;65.00;;;;;;5007153;28;81057;-38
2022/10/25 01:36:29;;;;;;;;;;;14.80;65.00;;;;;;5005336;28;82092;-38
2022/10/25 01:39:23;;;;;;;;;;;14.80;65.00;;;;;;5004289;28;83244;-38
2022/10/25 01:41:54;;;;;;;;;;;14.80;65.00;;;;;;5004726;28;83062;-38
2022/10/25 01:44:38;;;;;;;;;;;14.80;65.00;;;;;;5008854;28;83394;-38
2022/10/25 01:47:07;;;;;;;;;;;14.80;65.00;;;;;;5006536;28;82057;-38
2022/10/25 01:49:36;;;;;;;;;;;14.80;65.00;;;;;;5006295;28;82418;-38
2022/10/25 01:52:02;;;;;;;;;;;14.70;64.90;;;;;;5006097;28;82191;-38
2022/10/25 01:54:28;;;;;;;;;;;14.70;64.90;;;;;;5006224;28;81986;-38
2022/10/25 01:57:13;;;;;;;;;;;14.70;64.90;;;;;;5006424;28;82778;-38
2022/10/25 01:59:59;;;;;;;;;;;14.70;64.90;;;;;;5005411;28;83469;-38
2022/10/25 02:02:29;;;;;;;;;;;14.70;64.90;;;;;;5005977;28;81911;-38
2022/10/25 02:05:13;;;;;;;;;;;14.70;64.90;;;;;;5008759;28;81852;-38
2022/10/25 02:07:44;;;;;;;;;;;14.70;64.90;;;;;;5005623;28;83017;-38
2022/10/25 02:10:18;;;;;;;;;;;14.70;65.00;;;;;;5006295;28;83289;-38
2022/10/25 02:12:47;;;;;;;;;;;14.70;65.00;;;;;;5005792;28;83013;-38
2022/10/25 02:15:14;;;;;;;;;;;14.70;64.90;;;;;;5006117;28;81929;-38
2022/10/25 02:17:44;;;;;;;;;;;14.60;64.80;;;;;;5005930;28;82670;-38
2022/10/25 02:20:10;;;;;;;;;;;14.60;64.80;;;;;;5005694;28;82779;-38
2022/10/25 02:22:36;;;;;;;;;;;14.60;64.80;;;;;;5005656;28;82057;-38
2022/10/25 02:25:02;;;;;;;;;;;14.60;64.80;;;;;;5006277;28;82627;-38
2022/10/25 02:27:29;;;;;;;;;;;14.60;64.80;;;;;;5008257;28;83586;-38
2022/10/25 02:29:55;;;;;;;;;;;14.60;64.80;;;;;;5005807;28;82519;-38
2022/10/25 02:32:21;;;;;;;;;;;14.60;64.80;;;;;;5004627;28;83288;-38
2022/10/25 02:34:47;;;;;;;;;;;14.60;64.90;;;;;;5005796;28;81999;-38
2022/10/25 02:37:13;;;;;;;;;;;14.60;64.90;;;;;;5005908;28;82424;-38
2022/10/25 02:39:38;;;;;;;;;;;14.60;64.90;;;;;;5005543;28;83534;-38
2022/10/25 02:42:04;;;;;;;;;;;14.60;64.80;;;;;;5005810;28;82016;-38
2022/10/25 02:44:30;;;;;;;;;;;14.50;64.80;;;;;;5005804;28;81782;-38
2022/10/25 02:46:55;;;;;;;;;;;14.50;64.80;;;;;;5005304;28;83266;-38
2022/10/25 02:49:21;;;;;;;;;;;14.50;64.80;;;;;;5008810;28;81302;-38
2022/10/25 02:51:46;;;;;;;;;;;14.50;64.80;;;;;;5005641;28;83022;-38
2022/10/25 02:54:12;;;;;;;;;;;14.50;64.80;;;;;;5005578;28;82067;-38
2022/10/25 02:56:37;;;;;;;;;;;14.50;64.80;;;;;;5004894;28;82963;-38
2022/10/25 02:59:03;;;;;;;;;;;14.40;64.80;;;;;;5005294;28;83253;-38
2022/10/25 03:01:28;;;;;;;;;;;14.50;64.80;;;;;;5005344;28;81956;-38
2022/10/25 03:03:54;;;;;;;;;;;14.40;64.80;;;;;;5005465;28;82090;-38
2022/10/25 03:06:20;;;;;;;;;;;14.40;64.80;;;;;;5005246;28;82734;-38
2022/10/25 03:08:45;;;;;;;;;;;14.40;64.70;;;;;;5005465;28;82048;-38
2022/10/25 03:11:12;;;;;;;;;;;14.40;64.80;;;;;;5007781;28;82329;-38
2022/10/25 03:13:37;;;;;;;;;;;14.40;64.80;;;;;;5009511;28;81140;-38
2022/10/25 03:16:03;;;;;;;;;;;14.40;64.70;;;;;;5008764;28;81810;-38
2022/10/25 03:18:28;;;;;;;;;;;14.40;64.80;;;;;;5008731;28;82907;-38
2022/10/25 03:20:58;;;;;;;;;;;14.40;64.80;;;;;;5008146;28;82995;-38
2022/10/25 03:23:23;;;;;;;;;;;14.40;64.80;;;;;;5008495;28;83674;-38
2022/10/25 03:25:56;;;;;;;;;;;14.40;64.80;;;;;;5008509;28;82874;-37
2022/10/25 03:28:22;;;;;;;;;;;14.40;64.80;;;;;;5008620;28;81982;-38
2022/10/25 03:30:47;;;;;;;;;;;14.30;64.70;;;;;;5008280;28;82390;-38
2022/10/25 03:33:13;;;;;;;;;;;14.30;64.70;;;;;;5010995;28;82062;-38
2022/10/25 03:35:38;;;;;;;;;;;14.30;64.80;;;;;;5008517;28;82055;-38
2022/10/25 03:38:04;;;;;;;;;;;14.30;64.80;;;;;;5008735;28;82475;-38
2022/10/25 03:40:29;;;;;;;;;;;14.30;64.70;;;;;;5008533;28;81954;-38
2022/10/25 03:42:55;;;;;;;;;;;14.30;64.80;;;;;;5008306;28;81946;-38
2022/10/25 03:45:20;;;;;;;;;;;14.20;64.80;;;;;;5007615;28;83800;-38
2022/10/25 03:47:46;;;;;;;;;;;14.20;64.70;;;;;;5008427;28;81840;-38
2022/10/25 03:50:12;;;;;;;;;;;14.20;64.70;;;;;;5008363;28;82581;-38
2022/10/25 03:52:38;;;;;;;;;;;14.20;64.70;;;;;;5008077;28;82189;-38
2022/10/25 03:55:03;;;;;;;;;;;14.20;64.80;;;;;;5011021;28;82008;-38
2022/10/25 03:57:29;;;;;;;;;;;14.20;64.70;;;;;;5007749;28;84602;-38
2022/10/25 03:59:56;;;;;;;;;;;14.20;64.80;;;;;;5008246;28;82081;-38
2022/10/25 04:02:22;;;;;;;;;;;14.20;64.80;;;;;;5008767;28;82550;-38
2022/10/25 04:04:47;;;;;;;;;;;14.10;64.80;;;;;;5007905;28;82812;-38
2022/10/25 04:07:13;;;;;;;;;;;14.10;64.70;;;;;;5008084;28;81882;-38
2022/10/25 04:09:38;;;;;;;;;;;14.10;64.80;;;;;;5007504;28;82966;-38
2022/10/25 04:12:04;;;;;;;;;;;14.10;64.80;;;;;;5007446;28;82873;-38
2022/10/25 04:14:29;;;;;;;;;;;14.10;64.80;;;;;;5010677;28;82058;-38
2022/10/25 04:16:55;;;;;;;;;;;14.10;64.70;;;;;;5007437;28;83019;-38
2022/10/25 04:19:20;;;;;;;;;;;14.10;64.70;;;;;;5007933;28;82001;-38
2022/10/25 04:21:46;;;;;;;;;;;14.10;64.70;;;;;;5007592;28;82458;-38
2022/10/25 04:24:12;;;;;;;;;;;14.00;64.70;;;;;;5007144;28;82249;-38
2022/10/25 04:26:37;;;;;;;;;;;14.00;64.70;;;;;;5008136;28;81255;-38
2022/10/25 04:29:04;;;;;;;;;;;14.00;64.80;;;;;;5007770;28;82252;-38
2022/10/25 04:31:29;;;;;;;;;;;14.00;64.60;;;;;;5007068;28;82999;-38
2022/10/25 04:33:55;;;;;;;;;;;14.00;64.70;;;;;;5006950;28;83015;-38
2022/10/25 04:36:21;;;;;;;;;;;14.00;64.70;;;;;;5009966;28;83363;-38
2022/10/25 04:38:50;;;;;;;;;;;14.00;64.60;;;;;;5007519;28;81926;-38
2022/10/25 04:41:16;;;;;;;;;;;14.00;64.70;;;;;;5007405;28;81859;-38
2022/10/25 04:43:41;;;;;;;;;;;14.00;64.70;;;;;;5007332;28;82884;-38
2022/10/25 04:46:07;;;;;;;;;;;13.90;64.70;;;;;;5007197;28;81693;-38
2022/10/25 04:48:35;;;;;;;;;;;13.90;64.70;;;;;;5007579;28;81789;-38
2022/10/25 04:51:00;;;;;;;;;;;13.90;64.70;;;;;;5007653;28;82558;-38
2022/10/25 04:53:26;;;;;;;;;;;13.90;64.70;;;;;;5007235;28;82031;-38
2022/10/25 04:55:58;;;;;;;;;;;13.90;64.60;;;;;;5007252;28;81945;-38
2022/10/25 04:58:24;;;;;;;;;;;13.90;64.60;;;;;;5009078;28;83828;-38
2022/10/25 05:00:49;;;;;;;;;;;13.90;64.70;;;;;;5006970;28;83298;-38
2022/10/25 05:03:15;;;;;;;;;;;13.80;64.60;;;;;;5006976;28;82982;-38
2022/10/25 05:05:40;;;;;;;;;;;13.80;64.70;;;;;;5007180;28;82067;-38
2022/10/25 05:08:06;;;;;;;;;;;13.80;64.60;;;;;;5007047;28;82443;-38
2022/10/25 05:10:31;;;;;;;;;;;13.80;64.60;;;;;;5006964;28;82926;-38
2022/10/25 05:12:57;;;;;;;;;;;13.80;64.60;;;;;;5006770;28;82110;-38
2022/10/25 05:15:22;;;;;;;;;;;13.80;64.70;;;;;;5007275;28;81439;-38
2022/10/25 05:17:48;;;;;;;;;;;13.80;64.60;;;;;;5006712;28;83099;-38
2022/10/25 05:20:13;;;;;;;;;;;13.80;64.60;;;;;;5009650;28;81853;-38
2022/10/25 05:22:39;;;;;;;;;;;13.80;64.50;;;;;;5005788;28;83210;-38
2022/10/25 05:25:05;;;;;;;;;;;13.80;64.50;;;;;;5006986;28;82158;-38
2022/10/25 05:27:30;;;;;;;;;;;13.70;64.60;;;;;;5006462;28;83026;-38
2022/10/25 05:29:56;;;;;;;;;;;13.80;64.70;;;;;;5006212;28;83183;-38
2022/10/25 05:32:21;;;;;;;;;;;13.80;64.50;;;;;;5006758;28;82040;-38
2022/10/25 05:34:47;;;;;;;;;;;13.70;64.60;;;;;;5005533;28;81928;-38
2022/10/25 05:37:12;;;;;;;;;;;13.70;64.60;;;;;;5006405;28;82789;-38
2022/10/25 05:39:38;;;;;;;;;;;13.70;64.60;;;;;;5007273;28;80977;-38
2022/10/25 05:42:05;;;;;;;;;;;13.70;64.60;;;;;;5009362;28;81908;-38
2022/10/25 05:44:31;;;;;;;;;;;13.70;64.50;;;;;;5006309;28;82059;-38
2022/10/25 05:46:56;;;;;;;;;;;13.70;64.60;;;;;;5006006;28;82879;-38
2022/10/25 05:49:22;;;;;;;;;;;13.70;64.50;;;;;;5006372;28;83009;-38
2022/10/25 05:51:47;;;;;;;;;;;13.70;64.50;;;;;;5006377;28;82107;-38
2022/10/25 05:54:13;;;;;;;;;;;13.70;64.50;;;;;;5006403;28;82395;-38
2022/10/25 05:56:39;;;;;;;;;;;13.70;64.60;;;;;;5006358;28;83147;-38
2022/10/25 05:59:09;;;;;;;;;;;13.70;64.60;;;;;;5006109;28;82117;-38
2022/10/25 06:01:35;;;;;;;;;;;13.60;64.60;;;;;;5006098;28;82199;-38
2022/10/25 06:04:00;;;;;;;;;;;13.60;64.50;;;;;;5009141;28;82228;-38
2022/10/25 06:06:26;;;;;;;;;;;13.60;64.50;;;;;;5006563;28;82072;-38
2022/10/25 06:08:58;;;;;;;;;;;13.60;64.50;;;;;;5005966;28;82788;-38
2022/10/25 06:11:24;;;;;;;;;;;13.60;64.60;;;;;;5005091;28;83117;-38
2022/10/25 06:13:50;;;;;;;;;;;13.60;64.60;;;;;;5005830;28;82027;-38
2022/10/25 06:16:16;;;;;;;;;;;13.60;64.60;;;;;;5005858;28;83146;-38
2022/10/25 06:18:42;;;;;;;;;;;13.60;64.70;;;;;;5006011;28;81932;-38
2022/10/25 06:21:09;;;;;;;;;;;13.60;64.60;;;;;;5006042;28;82441;-38
2022/10/25 06:23:35;;;;;;;;;;;13.60;64.60;;;;;;5008346;28;82855;-38
2022/10/25 06:26:02;;;;;;;;;;;13.60;64.60;;;;;;5005893;28;82401;-38
2022/10/25 06:28:27;;;;;;;;;;;13.60;64.60;;;;;;5006116;28;81380;-38
2022/10/25 06:30:53;;;;;;;;;;;13.60;64.70;;;;;;5005801;28;81973;-38
2022/10/25 06:33:18;;;;;;;;;;;13.50;64.60;;;;;;5005981;28;82811;-38
2022/10/25 06:35:44;;;;;;;;;;;13.50;64.60;;;;;;5004976;28;83863;-38
2022/10/25 06:38:09;;;;;;;;;;;13.50;64.60;;;;;;5005813;28;82037;-38
2022/10/25 06:40:35;;;;;;;;;;;13.50;64.70;;;;;;5005659;28;82877;-38
2022/10/25 06:43:01;;;;;;;;;;;13.50;64.70;;;;;;5005793;28;82086;-38
2022/10/25 06:45:26;;;;;;;;;;;13.50;64.70;;;;;;5007580;28;82055;-38
2022/10/25 06:47:52;;;;;;;;;;;13.50;64.70;;;;;;5009102;28;83214;-38
2022/10/25 06:50:18;;;;;;;;;;;13.50;64.70;;;;;;5007766;28;82242;-38
2022/10/25 06:52:43;;;;;;;;;;;13.50;64.90;;;;;;5009560;28;82349;-38
2022/10/25 06:55:09;;;;;;;;;;;13.40;64.80;;;;;;5008798;28;82981;-38
2022/10/25 06:57:34;;;;;;;;;;;13.40;64.90;;;;;;5009057;28;82499;-38
2022/10/25 07:00:00;;;;;;;;;;;13.50;64.90;;;;;;5008401;28;82964;-38
2022/10/25 07:02:26;;;;;;;;;;;13.40;64.90;;;;;;5009153;28;82864;-38
2022/10/25 07:04:51;;;;;;;;;;;13.50;64.90;;;;;;5008990;28;82046;-38
2022/10/25 07:07:17;;;;;;;;;;;13.40;64.90;;;;;;5011592;28;82449;-38
2022/10/25 07:09:42;;;;;;;;;;;13.50;65.00;;;;;;5008993;28;82050;-38
2022/10/25 07:12:08;;;;;;;;;;;13.50;65.00;;;;;;5008770;28;82530;-38
2022/10/25 07:14:33;;;;;;;;;;;13.40;64.90;;;;;;5005015;28;88528;-38
2022/10/25 07:16:59;;;;;;;;;;;13.40;64.90;;;;;;5006063;28;86438;-38
2022/10/25 07:19:24;;;;;;;;;;;13.40;65.00;;;;;;5005561;28;87136;-38
2022/10/25 07:21:50;;;;;;;;;;;13.50;65.00;;;;;;5005151;28;87043;-38
2022/10/25 07:24:16;;;;;;;;;;;13.40;65.00;;;;;;5004311;28;88005;-38
2022/10/25 07:26:41;;;;;;;;;;;13.40;65.00;;;;;;5005221;28;88343;-38
2022/10/25 07:29:07;;;;;;;;;;;13.40;65.00;;;;;;5007568;28;87019;-38
2022/10/25 07:31:34;;;;;;;;;;;13.50;65.00;;;;;;5005262;28;87186;-38
2022/10/25 07:34:00;;;;;;;;;;;13.50;65.00;;;;;;5004715;28;87629;-38
2022/10/25 07:36:26;;;;;;;;;;;13.50;65.00;;;;;;5005064;28;87212;-38
2022/10/25 07:38:52;;;;;;;;;;;13.40;65.00;;;;;;5005206;28;87744;-38
2022/10/25 07:41:17;;;;;;;;;;;13.50;65.10;;;;;;5005338;28;86255;-38
2022/10/25 07:43:43;;;;;;;;;;;13.40;65.00;;;;;;5004838;28;87418;-38
2022/10/25 07:46:08;;;;;;;;;;;13.50;65.10;;;;;;5004951;28;87411;-38
2022/10/25 07:48:34;;;;;;;;;;;13.40;65.20;;;;;;5004003;28;88882;-38
2022/10/25 07:51:06;;;;;;;;;;;13.40;65.20;;;;;;5007945;28;87016;-38
2022/10/25 07:53:32;;;;;;;;;;;13.50;65.30;;;;;;5004534;28;88051;-37
2022/10/25 07:55:58;;;;;;;;;;;13.50;65.30;;;;;;5004837;28;87159;-38
2022/10/25 07:58:23;;;;;;;;;;;13.40;65.20;;;;;;5003712;28;87663;-38
2022/10/25 08:00:49;;;;;;;;;;;13.40;65.20;;;;;;5004476;28;88255;-38
2022/10/25 08:03:15;;;;;;;;;;;13.50;65.30;;;;;;5004741;28;87136;-38
2022/10/25 08:05:44;;;;;;;;;;;13.40;65.30;;;;;;5004938;28;87399;-38
2022/10/25 08:08:10;;;;;;;;;;;13.50;65.30;;;;;;5004318;28;87183;-38
2022/10/25 08:10:35;;;;;;;;;;;13.40;65.30;;;;;;5004657;28;87068;-38
2022/10/25 08:13:01;;;;;;;;;;;13.40;65.40;;;;;;5006009;28;87973;-38
2022/10/25 08:15:26;;;;;;;;;;;13.50;65.50;;;;;;5004594;28;87048;-38
2022/10/25 08:17:58;;;;;;;;;;;13.50;65.50;;;;;;5004428;28;87524;-38
2022/10/25 08:20:24;;;;;;;;;;;13.50;65.60;;;;;;5004037;28;87191;-38
2022/10/25 08:22:50;;;;;;;;;;;13.40;65.30;;;;;;5004327;28;87348;-38
2022/10/25 08:25:15;;;;;;;;;;;13.40;65.40;;;;;;5004405;28;87529;-38
2022/10/25 08:27:41;;;;;;;;;;;13.50;65.50;;;;;;5003962;28;88072;-38
2022/10/25 08:30:07;;;;;;;;;;;13.40;65.40;;;;;;5005025;28;86259;-38
2022/10/25 08:32:36;;;;;;;;;;;13.50;65.50;;;;;;5006698;28;87373;-38
2022/10/25 08:35:01;;;;;;;;;;;13.40;65.40;;;;;;5004083;28;86954;-38
2022/10/25 08:37:27;;;;;;;;;;;13.50;65.50;;;;;;5003536;28;87996;-38
2022/10/25 08:39:52;;;;;;;;;;;13.50;65.50;;;;;;5003669;28;87239;-38
2022/10/25 08:42:30;;;;;;;;;;;13.50;65.50;;;;;;5004125;28;87102;-38
2022/10/25 08:45:03;;;;;;;;;;;13.50;65.60;;;;;;5004081;28;87451;-38
2022/10/25 08:47:33;;;;;;;;;;;13.50;65.60;;;;;;5003463;28;87953;-38
2022/10/25 08:50:01;;;;;;;;;;;13.50;65.50;;;;;;5003887;28;87135;-38
2022/10/25 08:52:30;;;;;;;;;;;13.50;65.60;;;;;;5004008;28;87602;-38
2022/10/25 08:54:56;;;;;;;;;;;13.50;65.50;;;;;;5006639;28;87272;-38
2022/10/25 08:57:22;;;;;;;;;;;13.50;65.50;;;;;;5003827;28;87031;-38
2022/10/25 08:59:49;;;;;;;;;;;13.50;65.40;;;;;;5003523;28;87351;-38
2022/10/25 09:02:18;;;;;;;;;;;13.60;65.60;;;;;;5003160;28;87997;-38
2022/10/25 09:04:43;;;;;;;;;;;13.50;65.50;;;;;;5003711;28;88422;-38
2022/10/25 09:07:09;;;;;;;;;;;13.50;65.50;;;;;;5003372;28;88018;-38
2022/10/25 09:09:53;;;;;;;;;;;13.50;65.50;;;;;;5003454;28;87860;-38
2022/10/25 09:12:38;;;;;;;;;;;13.60;65.60;;;;;;5003487;28;87024;-38
2022/10/25 09:15:12;;;;;;;;;;;13.50;65.50;;;;;;5002966;28;88014;-38
2022/10/25 09:17:45;;;;;;;;;;;13.60;65.60;;;;;;5006596;28;86957;-38
2022/10/25 09:20:18;;;;;;;;;;;13.50;65.50;;;;;;5003552;28;87427;-38
2022/10/25 09:22:47;;;;;;;;;;;13.60;65.60;;;;;;5003370;28;87080;-38
2022/10/25 09:25:19;;;;;;;;;;;13.60;65.50;;;;;;5002886;28;90088;-38
2022/10/25 09:28:04;;;;;;;;;;;13.60;65.50;;;;;;5002409;28;88966;-38
2022/10/25 09:30:34;;;;;;;;;;;13.60;65.40;;;;;;5002056;28;87160;-38
2022/10/25 09:33:01;;;;;;;;;;;13.60;65.40;;;;;;5003342;28;87896;-38
2022/10/25 09:35:29;;;;;;;;;;;13.60;65.40;;;;;;5002640;28;88142;-38
2022/10/25 09:38:07;;;;;;;;;;;13.60;65.40;;;;;;5003143;28;86998;-38
2022/10/25 09:40:40;;;;;;;;;;;13.60;65.40;;;;;;5005932;28;87350;-38
2022/10/25 09:43:07;;;;;;;;;;;13.70;65.50;;;;;;5002997;28;86965;-38
2022/10/25 09:45:49;;;;;;;;;;;13.70;66.00;;;;;;5002254;28;90376;-38
2022/10/25 09:48:28;;;;;;;;;;;13.70;65.40;;;;;;5002571;28;88121;-38
2022/10/25 09:50:59;;;;;;;;;;;13.70;65.30;;;;;;5003119;28;87076;-38
2022/10/25 09:53:24;;;;;;;;;;;13.70;65.60;;;;;;5002171;28;88057;-38
2022/10/25 09:55:56;;;;;;;;;;;13.70;65.60;;;;;;5002494;28;87972;-38
2022/10/25 09:58:25;;;;;;;;;;;13.70;65.60;;;;;;5002929;28;87129;-38
2022/10/25 10:00:51;;;;;;;;;;;13.70;65.50;;;;;;5002864;28;87588;-38
2022/10/25 10:03:17;;;;;;;;;;;13.70;65.80;;;;;;5005316;28;87952;-38
2022/10/25 10:05:46;;;;;;;;;;;13.70;65.90;;;;;;5002906;28;87303;-38
2022/10/25 10:08:12;;;;;;;;;;;13.80;65.90;;;;;;5002391;28;88064;-38
2022/10/25 10:10:38;;;;;;;;;;;13.80;66.00;;;;;;5003409;28;86345;-38
2022/10/25 10:13:16;;;;;;;;;;;13.80;66.00;;;;;;5002707;28;87094;-38
2022/10/25 10:15:53;;;;;;;;;;;13.80;66.10;;;;;;5002124;28;87248;-38
2022/10/25 10:18:18;;;;;;;;;;;13.80;66.10;;;;;;5002124;28;87968;-38
2022/10/25 10:21:02;;;;;;;;;;;13.80;66.10;;;;;;5002078;28;88401;-38
2022/10/25 10:23:50;;;;;;;;;;;13.80;66.30;;;;;;5002059;28;87584;-38
2022/10/25 10:26:16;;;;;;;;;;;13.80;66.80;;;;;;5004692;28;87028;-38
2022/10/25 10:29:00;;;;;;;;;;;13.80;66.30;;;;;;5002428;28;88113;-38
2022/10/25 10:31:32;;;;;;;;;;;13.80;66.40;;;;;;5002448;28;87088;-38
2022/10/25 10:33:57;;;;;;;;;;;13.80;66.30;;;;;;5002715;28;87223;-38
2022/10/25 10:36:24;;;;;;;;;;;13.80;66.40;;;;;;5002655;28;87386;-38
2022/10/25 10:38:50;;;;;;;;;;;13.90;66.50;;;;;;5002352;28;87136;-38
2022/10/25 10:41:23;;;;;;;;;;;13.90;66.50;;;;;;5002380;28;87595;-38
2022/10/25 10:43:49;;;;;;;;;;;13.90;66.50;;;;;;5001192;28;89159;-38
2022/10/25 10:46:16;;;;;;;;;;;13.90;66.50;;;;;;5005322;28;87123;-38
2022/10/25 10:48:43;;;;;;;;;;;13.90;66.50;;;;;;5002075;28;87927;-38
2022/10/25 10:51:10;;;;;;;;;;;13.90;66.50;;;;;;5002333;28;87086;-38
2022/10/25 10:53:35;;;;;;;;;;;13.90;66.50;;;;;;5002166;28;87548;-38
2022/10/25 10:56:05;;;;;;;;;;;14.00;66.60;;;;;;5001424;28;87983;-38
2022/10/25 10:58:33;;;;;;;;;;;14.00;66.60;;;;;;5001954;28;87069;-38
2022/10/25 11:01:02;;;;;;;;;;;13.90;66.50;;;;;;5002460;28;87203;-38
2022/10/25 11:03:40;;;;;;;;;;;14.00;66.60;;;;;;5001751;28;88205;-38
2022/10/25 11:06:15;;;;;;;;;;;14.00;66.60;;;;;;5002193;28;86858;-38
2022/10/25 11:08:46;;;;;;;;;;;14.00;66.60;;;;;;5003832;28;87921;-38
2022/10/25 11:11:18;;;;;;;;;;;14.10;66.70;;;;;;5001638;28;87077;-38
2022/10/25 11:13:54;;;;;;;;;;;14.10;66.70;;;;;;5002154;28;86998;-38
2022/10/25 11:16:39;;;;;;;;;;;14.10;66.70;;;;;;5001784;28;87921;-38
2022/10/25 11:19:23;;;;;;;;;;;14.10;66.70;;;;;;5001942;28;87048;-38
2022/10/25 11:21:58;;;;;;;;;;;14.10;66.70;;;;;;5002068;28;87703;-38
2022/10/25 11:24:23;;;;;;;;;;;14.10;66.70;;;;;;5001091;28;88154;-38
2022/10/25 11:26:49;;;;;;;;;;;14.10;67.40;;;;;;5002362;28;86325;-38
2022/10/25 11:29:14;;;;;;;;;;;14.10;66.60;;;;;;5001934;28;87419;-38
2022/10/25 11:31:55;;;;;;;;;;;14.20;66.70;;;;;;5004332;28;87098;-37
2022/10/25 11:34:31;;;;;;;;;;;14.20;66.70;;;;;;5004560;28;87868;-38
2022/10/25 11:37:32;;;;;;;;;;;14.20;66.60;;;;;;5004934;28;87279;-38
2022/10/25 11:40:06;;;;;;;;;;;14.20;66.60;;;;;;5002440;28;87048;-38
2022/10/25 11:42:50;;;;;;;;;;;14.20;66.60;;;;;;5004588;28;87979;-38
2022/10/25 11:45:18;;;;;;;;;;;14.30;66.60;;;;;;5004826;28;88172;-38
2022/10/25 11:47:44;;;;;;;;;;;14.30;66.70;;;;;;5005093;28;87099;-38
2022/10/25 11:50:27;;;;;;;;;;;14.30;66.70;;;;;;5004906;28;87469;-38
2022/10/25 11:53:07;;;;;;;;;;;14.30;66.60;;;;;;5005260;28;87249;-38
2022/10/25 11:55:47;;;;;;;;;;;14.30;66.60;;;;;;5007944;28;87032;-38
2022/10/25 11:58:30;;;;;;;;;;;14.30;66.60;;;;;;5004496;28;88414;-38
2022/10/25 12:00:59;;;;;;;;;;;14.30;66.60;;;;;;5004082;28;88028;-38
2022/10/25 12:03:47;;;;;;;;;;;14.40;66.50;;;;;;5004736;28;88339;-38
2022/10/25 12:06:26;;;;;;;;;;;14.40;66.40;;;;;;5004517;28;87883;-38
2022/10/25 12:08:51;;;;;;;;;;;14.40;66.60;;;;;;5004766;28;87529;-38
2022/10/25 12:11:19;;;;;;;;;;;14.40;66.60;;;;;;5003829;28;87382;-38
2022/10/25 12:13:48;;;;;;;;;;;14.50;66.60;;;;;;5004264;28;88395;-38
2022/10/25 12:16:15;;;;;;;;;;;14.40;66.50;;;;;;5004053;28;87087;-38
2022/10/25 12:18:43;;;;;;;;;;;14.50;67.10;;;;;;5007574;28;87418;-38
2022/10/25 12:21:11;;;;;;;;;;;14.50;66.40;;;;;;5004425;28;87451;-38
2022/10/25 12:23:47;;;;;;;;;;;14.50;66.40;;;;;;5004168;28;87456;-38
2022/10/25 12:26:18;;;;;;;;;;;14.50;66.50;;;;;;5003495;28;88967;-38
2022/10/25 12:28:45;;;;;;;;;;;14.60;66.60;;;;;;5004482;28;87110;-38
2022/10/25 12:31:24;;;;;;;;;;;14.60;66.40;;;;;;5004239;28;87598;-38
2022/10/25 12:34:10;;;;;;;;;;;14.60;66.50;;;;;;5004173;28;87994;-38
2022/10/25 12:36:37;;;;;;;;;;;14.60;66.40;;;;;;5003562;28;87158;-38
2022/10/25 12:39:05;;;;;;;;;;;14.60;66.40;;;;;;5006810;28;87843;-38
2022/10/25 12:41:33;;;;;;;;;;;14.60;66.30;;;;;;5004029;28;87049;-38
2022/10/25 12:44:08;;;;;;;;;;;14.70;66.50;;;;;;5004305;28;87566;-38
2022/10/25 12:46:37;;;;;;;;;;;14.70;66.50;;;;;;5003801;28;88260;-38
2022/10/25 12:49:22;;;;;;;;;;;14.70;66.30;;;;;;5003621;28;87166;-38
2022/10/25 12:51:56;;;;;;;;;;;14.70;67.00;;;;;;5003308;28;87906;-38
2022/10/25 12:54:27;;;;;;;;;;;14.70;66.30;;;;;;5003808;28;88215;-38
2022/10/25 12:57:13;;;;;;;;;;;14.80;66.30;;;;;;5004096;28;87065;-38
2022/10/25 12:59:48;;;;;;;;;;;14.80;66.40;;;;;;5003958;28;87368;-38
2022/10/25 13:02:14;;;;;;;;;;;14.80;66.40;;;;;;5006536;28;88131;-38
2022/10/25 13:04:45;;;;;;;;;;;14.80;66.40;;;;;;5003756;28;88083;-38
2022/10/25 13:07:12;;;;;;;;;;;14.80;66.30;;;;;;5003419;28;87818;-38
2022/10/25 13:09:38;;;;;;;;;;;14.80;66.20;;;;;;5004337;28;86329;-38
2022/10/25 13:12:05;;;;;;;;;;;14.80;66.30;;;;;;5003348;28;87098;-38
2022/10/25 13:14:30;;;;;;;;;;;14.90;66.20;;;;;;5003167;28;88305;-38
2022/10/25 13:17:14;;;;;;;;;;;14.90;66.30;;;;;;5003172;28;88067;-38
2022/10/25 13:19:40;;;;;;;;;;;14.90;66.40;;;;;;5003728;28;88467;-38
2022/10/25 13:22:11;;;;;;;;;;;14.90;66.40;;;;;;5003057;28;88174;-38
2022/10/25 13:24:36;;;;;;;;;;;14.90;66.50;;;;;;5006186;28;87092;-38
2022/10/25 13:27:11;;;;;;;;;;;15.00;66.40;;;;;;5003124;28;88269;-38
2022/10/25 13:29:47;;;;;;;;;;;15.00;66.30;;;;;;5003423;28;87098;-38
2022/10/25 13:32:19;;;;;;;;;;;15.00;66.40;;;;;;5003450;28;87013;-38
2022/10/25 13:34:45;;;;;;;;;;;15.00;66.40;;;;;;5003254;28;87015;-38
2022/10/25 13:37:29;;;;;;;;;;;15.00;66.20;;;;;;5003443;28;86782;-37
2022/10/25 13:39:56;;;;;;;;;;;15.10;66.30;;;;;;5003472;28;87374;-38
2022/10/25 13:42:32;;;;;;;;;;;15.10;66.30;;;;;;5002250;28;88847;-38
2022/10/25 13:45:04;;;;;;;;;;;15.10;66.20;;;;;;5003224;28;87003;-38
2022/10/25 13:47:42;;;;;;;;;;;15.10;66.30;;;;;;5005600;28;87505;-38
2022/10/25 13:50:14;;;;;;;;;;;15.10;66.20;;;;;;5003185;28;87103;-38
2022/10/25 13:53:00;;;;;;;;;;;15.10;66.30;;;;;;5003226;28;87284;-37
2022/10/25 13:55:28;;;;;;;;;;;15.20;66.40;;;;;;5001904;28;87007;-38
2022/10/25 13:57:57;;;;;;;;;;;15.10;66.20;;;;;;5002759;28;87030;-38
2022/10/25 14:00:22;;;;;;;;;;;15.20;66.30;;;;;;5003235;28;87851;-38
2022/10/25 14:03:06;;;;;;;;;;;15.20;66.90;;;;;;5002652;28;87123;-38
2022/10/25 14:05:50;;;;;;;;;;;15.20;66.30;;;;;;5002933;28;87012;-38
2022/10/25 14:08:26;;;;;;;;;;;15.20;66.10;;;;;;5002368;28;87876;-38
2022/10/25 14:10:52;;;;;;;;;;;15.30;66.20;;;;;;5005159;28;88148;-37
2022/10/25 14:13:23;;;;;;;;;;;15.30;66.30;;;;;;5002408;28;87197;-38
2022/10/25 14:15:58;;;;;;;;;;;15.30;66.30;;;;;;5002160;28;89298;-38
2022/10/25 14:18:24;;;;;;;;;;;15.30;66.40;;;;;;5002647;28;87095;-38
2022/10/25 14:20:59;;;;;;;;;;;15.30;66.40;;;;;;5002813;28;87471;-38
2022/10/25 14:23:31;;;;;;;;;;;15.30;66.20;;;;;;5002395;28;88028;-38
2022/10/25 14:25:57;;;;;;;;;;;15.30;66.30;;;;;;5003171;28;86419;-37
2022/10/25 14:28:26;;;;;;;;;;;15.30;66.30;;;;;;5002638;28;87147;-38